sensor_id;sensor_type;location;lat;lon;timestamp;P1;durP1;ratioP1;P2;durP2;ratioP2
67696;SDS011;54486;51.442;6.778;2023-03-14T00:02:23;8.17;;;2.10;;
67696;SDS011;54486;51.442;6.778;2023-03-14T00:04:53;7.68;;;1.95;;
67696;SDS011;54486;51.442;6.778;2023-03-14T00:07:22;7.60;;;1.75;;
67696;SDS011;54486;51.442;6.778;2023-03-14T00:09:52;9.32;;;2.60;;
67696;SDS011;54486;51.442;6.778;2023-03-14T00:12:19;8.63;;;1.93;;
67696;SDS011;54486;51.442;6.778;2023-03-14T00:14:47;9.57;;;2.23;;
67696;SDS011;54486;51.442;6.778;2023-03-14T00:17:14;8.93;;;2.10;;
67696;SDS011;54486;51.442;6.778;2023-03-14T00:19:41;8.40;;;1.90;;
67696;SDS011;54486;51.442;6.778;2023-03-14T00:22:08;9.48;;;2.30;;
67696;SDS011;54486;51.442;6.778;2023-03-14T00:24:35;7.95;;;2.00;;
67696;SDS011;54486;51.442;6.778;2023-03-14T00:27:03;8.52;;;2.25;;
67696;SDS011;54486;51.442;6.778;2023-03-14T00:29:30;9.32;;;2.42;;
67696;SDS011;54486;51.442;6.778;2023-03-14T00:31:57;9.18;;;2.00;;
67696;SDS011;54486;51.442;6.778;2023-03-14T00:34:28;9.60;;;2.33;;
67696;SDS011;54486;51.442;6.778;2023-03-14T00:36:56;10.70;;;2.35;;
67696;SDS011;54486;51.442;6.778;2023-03-14T00:39:23;9.30;;;1.80;;
67696;SDS011;54486;51.442;6.778;2023-03-14T00:41:51;9.30;;;1.80;;
67696;SDS011;54486;51.442;6.778;2023-03-14T00:44:18;6.45;;;1.70;;
67696;SDS011;54486;51.442;6.778;2023-03-14T00:46:46;7.25;;;1.75;;
67696;SDS011;54486;51.442;6.778;2023-03-14T00:49:16;8.15;;;1.77;;
67696;SDS011;54486;51.442;6.778;2023-03-14T00:51:43;8.45;;;2.03;;
67696;SDS011;54486;51.442;6.778;2023-03-14T00:54:10;7.43;;;2.00;;
67696;SDS011;54486;51.442;6.778;2023-03-14T00:56:37;7.90;;;2.17;;
67696;SDS011;54486;51.442;6.778;2023-03-14T00:59:04;7.60;;;2.13;;
67696;SDS011;54486;51.442;6.778;2023-03-14T01:01:31;7.00;;;1.73;;
67696;SDS011;54486;51.442;6.778;2023-03-14T01:03:59;8.55;;;2.00;;
67696;SDS011;54486;51.442;6.778;2023-03-14T01:06:27;6.80;;;1.70;;
67696;SDS011;54486;51.442;6.778;2023-03-14T01:08:56;7.63;;;1.70;;
67696;SDS011;54486;51.442;6.778;2023-03-14T01:11:28;5.93;;;1.50;;
67696;SDS011;54486;51.442;6.778;2023-03-14T01:13:57;6.20;;;1.42;;
67696;SDS011;54486;51.442;6.778;2023-03-14T01:16:25;7.80;;;1.65;;
67696;SDS011;54486;51.442;6.778;2023-03-14T01:18:54;8.27;;;1.88;;
67696;SDS011;54486;51.442;6.778;2023-03-14T01:21:25;7.65;;;1.55;;
67696;SDS011;54486;51.442;6.778;2023-03-14T01:23:56;9.55;;;1.60;;
67696;SDS011;54486;51.442;6.778;2023-03-14T01:26:25;8.68;;;2.33;;
67696;SDS011;54486;51.442;6.778;2023-03-14T01:28:54;7.60;;;1.70;;
67696;SDS011;54486;51.442;6.778;2023-03-14T01:31:22;8.67;;;1.90;;
67696;SDS011;54486;51.442;6.778;2023-03-14T01:33:50;6.85;;;1.60;;
67696;SDS011;54486;51.442;6.778;2023-03-14T01:36:17;10.30;;;2.00;;
67696;SDS011;54486;51.442;6.778;2023-03-14T01:38:44;9.85;;;2.30;;
67696;SDS011;54486;51.442;6.778;2023-03-14T01:41:18;8.77;;;2.50;;
67696;SDS011;54486;51.442;6.778;2023-03-14T01:43:47;9.27;;;2.33;;
67696;SDS011;54486;51.442;6.778;2023-03-14T01:46:32;9.27;;;2.00;;
67696;SDS011;54486;51.442;6.778;2023-03-14T01:49:05;10.70;;;2.40;;
67696;SDS011;54486;51.442;6.778;2023-03-14T01:51:54;9.53;;;2.53;;
67696;SDS011;54486;51.442;6.778;2023-03-14T02:00:19;9.68;;;2.05;;
67696;SDS011;54486;51.442;6.778;2023-03-14T02:02:49;8.73;;;2.90;;
67696;SDS011;54486;51.442;6.778;2023-03-14T02:05:19;10.73;;;3.10;;
67696;SDS011;54486;51.442;6.778;2023-03-14T02:07:55;10.43;;;3.47;;
67696;SDS011;54486;51.442;6.778;2023-03-14T02:10:25;10.65;;;2.42;;
67696;SDS011;54486;51.442;6.778;2023-03-14T02:12:59;9.35;;;2.38;;
67696;SDS011;54486;51.442;6.778;2023-03-14T02:15:36;7.35;;;1.63;;
67696;SDS011;54486;51.442;6.778;2023-03-14T02:18:09;9.50;;;1.70;;
67696;SDS011;54486;51.442;6.778;2023-03-14T02:20:53;8.20;;;1.87;;
67696;SDS011;54486;51.442;6.778;2023-03-14T02:23:48;8.93;;;2.03;;
67696;SDS011;54486;51.442;6.778;2023-03-14T02:26:22;8.57;;;2.20;;
67696;SDS011;54486;51.442;6.778;2023-03-14T02:29:00;9.43;;;2.22;;
67696;SDS011;54486;51.442;6.778;2023-03-14T02:31:28;9.32;;;2.60;;
67696;SDS011;54486;51.442;6.778;2023-03-14T02:33:57;8.65;;;2.70;;
67696;SDS011;54486;51.442;6.778;2023-03-14T02:36:27;11.50;;;2.80;;
67696;SDS011;54486;51.442;6.778;2023-03-14T02:41:35;9.90;;;2.70;;
67696;SDS011;54486;51.442;6.778;2023-03-14T02:44:03;10.90;;;2.50;;
67696;SDS011;54486;51.442;6.778;2023-03-14T02:46:31;10.13;;;2.25;;
67696;SDS011;54486;51.442;6.778;2023-03-14T02:49:08;7.40;;;1.80;;
67696;SDS011;54486;51.442;6.778;2023-03-14T02:51:41;8.77;;;2.20;;
67696;SDS011;54486;51.442;6.778;2023-03-14T02:54:12;8.35;;;2.13;;
67696;SDS011;54486;51.442;6.778;2023-03-14T02:56:41;8.80;;;2.13;;
67696;SDS011;54486;51.442;6.778;2023-03-14T02:59:09;8.90;;;1.88;;
67696;SDS011;54486;51.442;6.778;2023-03-14T03:01:37;9.75;;;1.60;;
67696;SDS011;54486;51.442;6.778;2023-03-14T03:04:04;9.70;;;1.70;;
67696;SDS011;54486;51.442;6.778;2023-03-14T03:06:32;9.23;;;1.67;;
67696;SDS011;54486;51.442;6.778;2023-03-14T03:08:59;8.55;;;1.38;;
67696;SDS011;54486;51.442;6.778;2023-03-14T03:11:26;6.70;;;1.50;;
67696;SDS011;54486;51.442;6.778;2023-03-14T03:13:53;8.03;;;1.60;;
67696;SDS011;54486;51.442;6.778;2023-03-14T03:16:23;10.68;;;1.65;;
67696;SDS011;54486;51.442;6.778;2023-03-14T03:18:51;10.05;;;1.80;;
67696;SDS011;54486;51.442;6.778;2023-03-14T03:21:18;6.93;;;1.60;;
67696;SDS011;54486;51.442;6.778;2023-03-14T03:23:45;7.73;;;1.40;;
67696;SDS011;54486;51.442;6.778;2023-03-14T03:26:14;6.05;;;1.58;;
67696;SDS011;54486;51.442;6.778;2023-03-14T03:28:41;9.07;;;1.77;;
67696;SDS011;54486;51.442;6.778;2023-03-14T03:31:09;7.97;;;1.65;;
67696;SDS011;54486;51.442;6.778;2023-03-14T03:33:37;10.38;;;2.15;;
67696;SDS011;54486;51.442;6.778;2023-03-14T03:36:06;6.30;;;1.42;;
67696;SDS011;54486;51.442;6.778;2023-03-14T03:38:34;8.75;;;1.85;;
67696;SDS011;54486;51.442;6.778;2023-03-14T03:41:02;9.40;;;1.80;;
67696;SDS011;54486;51.442;6.778;2023-03-14T03:43:31;8.85;;;1.95;;
67696;SDS011;54486;51.442;6.778;2023-03-14T03:46:02;9.18;;;1.63;;
67696;SDS011;54486;51.442;6.778;2023-03-14T03:48:30;8.90;;;2.15;;
67696;SDS011;54486;51.442;6.778;2023-03-14T03:50:57;12.48;;;2.83;;
67696;SDS011;54486;51.442;6.778;2023-03-14T03:53:24;10.13;;;2.33;;
67696;SDS011;54486;51.442;6.778;2023-03-14T03:55:59;10.63;;;2.70;;
67696;SDS011;54486;51.442;6.778;2023-03-14T03:58:27;8.23;;;1.85;;
67696;SDS011;54486;51.442;6.778;2023-03-14T04:00:54;7.72;;;1.48;;
67696;SDS011;54486;51.442;6.778;2023-03-14T04:03:21;8.38;;;1.92;;
67696;SDS011;54486;51.442;6.778;2023-03-14T04:06:01;7.13;;;1.80;;
67696;SDS011;54486;51.442;6.778;2023-03-14T04:08:31;8.45;;;1.88;;
67696;SDS011;54486;51.442;6.778;2023-03-14T04:10:58;8.07;;;1.88;;
67696;SDS011;54486;51.442;6.778;2023-03-14T04:13:26;6.57;;;1.80;;
67696;SDS011;54486;51.442;6.778;2023-03-14T04:15:54;9.82;;;1.73;;
67696;SDS011;54486;51.442;6.778;2023-03-14T04:18:23;8.35;;;1.95;;
67696;SDS011;54486;51.442;6.778;2023-03-14T04:20:54;8.68;;;1.98;;
67696;SDS011;54486;51.442;6.778;2023-03-14T04:23:23;8.77;;;2.37;;
67696;SDS011;54486;51.442;6.778;2023-03-14T04:25:52;8.65;;;1.92;;
67696;SDS011;54486;51.442;6.778;2023-03-14T04:28:20;6.97;;;1.40;;
67696;SDS011;54486;51.442;6.778;2023-03-14T04:30:47;5.97;;;1.47;;
67696;SDS011;54486;51.442;6.778;2023-03-14T04:33:14;7.72;;;1.88;;
67696;SDS011;54486;51.442;6.778;2023-03-14T04:35:44;8.32;;;1.90;;
67696;SDS011;54486;51.442;6.778;2023-03-14T04:38:14;8.10;;;2.23;;
67696;SDS011;54486;51.442;6.778;2023-03-14T04:40:44;5.00;;;1.33;;
67696;SDS011;54486;51.442;6.778;2023-03-14T04:43:11;5.20;;;1.53;;
67696;SDS011;54486;51.442;6.778;2023-03-14T04:45:42;5.47;;;1.30;;
67696;SDS011;54486;51.442;6.778;2023-03-14T04:48:10;7.07;;;1.40;;
67696;SDS011;54486;51.442;6.778;2023-03-14T04:50:37;5.37;;;1.43;;
67696;SDS011;54486;51.442;6.778;2023-03-14T04:53:05;5.90;;;1.38;;
67696;SDS011;54486;51.442;6.778;2023-03-14T04:55:35;7.97;;;1.73;;
67696;SDS011;54486;51.442;6.778;2023-03-14T04:58:02;8.30;;;1.80;;
67696;SDS011;54486;51.442;6.778;2023-03-14T05:00:29;7.10;;;1.92;;
67696;SDS011;54486;51.442;6.778;2023-03-14T05:02:57;9.68;;;2.90;;
67696;SDS011;54486;51.442;6.778;2023-03-14T05:05:25;9.05;;;2.97;;
67696;SDS011;54486;51.442;6.778;2023-03-14T05:07:53;9.90;;;2.53;;
67696;SDS011;54486;51.442;6.778;2023-03-14T05:10:20;10.20;;;2.63;;
67696;SDS011;54486;51.442;6.778;2023-03-14T05:12:48;8.50;;;2.60;;
67696;SDS011;54486;51.442;6.778;2023-03-14T05:15:15;7.47;;;2.13;;
67696;SDS011;54486;51.442;6.778;2023-03-14T05:17:42;8.40;;;2.00;;
67696;SDS011;54486;51.442;6.778;2023-03-14T05:20:10;7.70;;;1.70;;
67696;SDS011;54486;51.442;6.778;2023-03-14T05:22:39;5.32;;;1.88;;
67696;SDS011;54486;51.442;6.778;2023-03-14T05:25:07;5.35;;;1.40;;
67696;SDS011;54486;51.442;6.778;2023-03-14T05:27:35;5.47;;;1.30;;
67696;SDS011;54486;51.442;6.778;2023-03-14T05:30:03;4.95;;;1.10;;
67696;SDS011;54486;51.442;6.778;2023-03-14T05:32:33;4.47;;;1.13;;
67696;SDS011;54486;51.442;6.778;2023-03-14T05:35:01;4.72;;;1.30;;
67696;SDS011;54486;51.442;6.778;2023-03-14T05:37:28;4.60;;;1.20;;
67696;SDS011;54486;51.442;6.778;2023-03-14T05:39:55;6.03;;;1.80;;
67696;SDS011;54486;51.442;6.778;2023-03-14T05:42:23;5.43;;;1.50;;
67696;SDS011;54486;51.442;6.778;2023-03-14T05:44:49;7.88;;;2.10;;
67696;SDS011;54486;51.442;6.778;2023-03-14T05:47:17;7.15;;;2.30;;
67696;SDS011;54486;51.442;6.778;2023-03-14T05:49:44;7.97;;;2.55;;
67696;SDS011;54486;51.442;6.778;2023-03-14T05:52:11;9.05;;;3.03;;
67696;SDS011;54486;51.442;6.778;2023-03-14T05:54:38;9.27;;;3.63;;
67696;SDS011;54486;51.442;6.778;2023-03-14T05:57:05;12.30;;;4.37;;
67696;SDS011;54486;51.442;6.778;2023-03-14T05:59:33;12.43;;;4.23;;
67696;SDS011;54486;51.442;6.778;2023-03-14T06:02:00;10.97;;;3.77;;
67696;SDS011;54486;51.442;6.778;2023-03-14T06:04:27;10.02;;;3.10;;
67696;SDS011;54486;51.442;6.778;2023-03-14T06:06:54;7.70;;;2.05;;
67696;SDS011;54486;51.442;6.778;2023-03-14T06:09:22;7.45;;;1.83;;
67696;SDS011;54486;51.442;6.778;2023-03-14T06:11:50;7.80;;;2.10;;
67696;SDS011;54486;51.442;6.778;2023-03-14T06:14:17;7.00;;;1.90;;
67696;SDS011;54486;51.442;6.778;2023-03-14T06:16:44;6.78;;;1.80;;
67696;SDS011;54486;51.442;6.778;2023-03-14T06:19:12;7.45;;;2.00;;
67696;SDS011;54486;51.442;6.778;2023-03-14T06:21:39;7.93;;;2.17;;
67696;SDS011;54486;51.442;6.778;2023-03-14T06:24:06;8.90;;;2.35;;
67696;SDS011;54486;51.442;6.778;2023-03-14T06:26:34;8.10;;;2.30;;
67696;SDS011;54486;51.442;6.778;2023-03-14T06:29:01;8.90;;;2.42;;
67696;SDS011;54486;51.442;6.778;2023-03-14T06:31:30;6.70;;;1.80;;
67696;SDS011;54486;51.442;6.778;2023-03-14T06:33:58;6.07;;;1.73;;
67696;SDS011;54486;51.442;6.778;2023-03-14T06:36:25;6.40;;;1.50;;
67696;SDS011;54486;51.442;6.778;2023-03-14T06:38:53;6.50;;;1.70;;
67696;SDS011;54486;51.442;6.778;2023-03-14T06:41:20;5.20;;;1.60;;
67696;SDS011;54486;51.442;6.778;2023-03-14T06:43:50;5.57;;;1.73;;
67696;SDS011;54486;51.442;6.778;2023-03-14T06:46:20;4.63;;;1.27;;
67696;SDS011;54486;51.442;6.778;2023-03-14T06:48:48;4.70;;;1.10;;
67696;SDS011;54486;51.442;6.778;2023-03-14T06:51:15;3.55;;;1.05;;
67696;SDS011;54486;51.442;6.778;2023-03-14T06:53:42;3.50;;;1.10;;
67696;SDS011;54486;51.442;6.778;2023-03-14T06:56:10;3.30;;;1.17;;
67696;SDS011;54486;51.442;6.778;2023-03-14T06:58:37;4.18;;;1.25;;
67696;SDS011;54486;51.442;6.778;2023-03-14T07:01:04;2.72;;;0.90;;
67696;SDS011;54486;51.442;6.778;2023-03-14T07:03:35;3.72;;;1.08;;
67696;SDS011;54486;51.442;6.778;2023-03-14T07:06:03;3.93;;;1.20;;
67696;SDS011;54486;51.442;6.778;2023-03-14T07:08:31;3.83;;;1.00;;
67696;SDS011;54486;51.442;6.778;2023-03-14T07:10:58;4.93;;;1.30;;
67696;SDS011;54486;51.442;6.778;2023-03-14T07:13:25;4.93;;;1.20;;
67696;SDS011;54486;51.442;6.778;2023-03-14T07:15:53;4.97;;;1.48;;
67696;SDS011;54486;51.442;6.778;2023-03-14T07:18:20;5.28;;;1.40;;
67696;SDS011;54486;51.442;6.778;2023-03-14T07:20:47;5.60;;;1.50;;
67696;SDS011;54486;51.442;6.778;2023-03-14T07:23:16;6.72;;;1.70;;
67696;SDS011;54486;51.442;6.778;2023-03-14T07:25:44;4.28;;;1.38;;
67696;SDS011;54486;51.442;6.778;2023-03-14T07:28:11;4.97;;;1.27;;
67696;SDS011;54486;51.442;6.778;2023-03-14T07:30:38;4.47;;;1.10;;
67696;SDS011;54486;51.442;6.778;2023-03-14T07:33:07;4.38;;;1.30;;
67696;SDS011;54486;51.442;6.778;2023-03-14T07:35:37;5.03;;;1.27;;
67696;SDS011;54486;51.442;6.778;2023-03-14T07:38:04;4.27;;;1.30;;
67696;SDS011;54486;51.442;6.778;2023-03-14T07:40:31;5.43;;;1.20;;
67696;SDS011;54486;51.442;6.778;2023-03-14T07:42:58;4.93;;;1.38;;
67696;SDS011;54486;51.442;6.778;2023-03-14T07:45:26;4.88;;;1.30;;
67696;SDS011;54486;51.442;6.778;2023-03-14T07:47:54;5.53;;;1.60;;
67696;SDS011;54486;51.442;6.778;2023-03-14T07:50:24;6.18;;;1.63;;
67696;SDS011;54486;51.442;6.778;2023-03-14T07:52:53;5.53;;;1.60;;
67696;SDS011;54486;51.442;6.778;2023-03-14T07:55:21;4.97;;;1.40;;
67696;SDS011;54486;51.442;6.778;2023-03-14T07:57:48;6.25;;;1.77;;
67696;SDS011;54486;51.442;6.778;2023-03-14T08:00:15;5.32;;;1.70;;
67696;SDS011;54486;51.442;6.778;2023-03-14T08:02:43;5.50;;;1.60;;
67696;SDS011;54486;51.442;6.778;2023-03-14T08:05:10;6.75;;;1.80;;
67696;SDS011;54486;51.442;6.778;2023-03-14T08:07:37;6.72;;;1.90;;
67696;SDS011;54486;51.442;6.778;2023-03-14T08:10:04;6.40;;;1.90;;
67696;SDS011;54486;51.442;6.778;2023-03-14T08:12:33;6.28;;;1.70;;
67696;SDS011;54486;51.442;6.778;2023-03-14T08:15:04;7.13;;;1.92;;
67696;SDS011;54486;51.442;6.778;2023-03-14T08:17:31;7.38;;;2.00;;
67696;SDS011;54486;51.442;6.778;2023-03-14T08:19:58;6.03;;;1.95;;
67696;SDS011;54486;51.442;6.778;2023-03-14T08:22:26;6.97;;;2.45;;
67696;SDS011;54486;51.442;6.778;2023-03-14T08:24:53;7.45;;;2.13;;
67696;SDS011;54486;51.442;6.778;2023-03-14T08:27:19;6.53;;;2.03;;
67696;SDS011;54486;51.442;6.778;2023-03-14T08:29:46;5.43;;;1.90;;
67696;SDS011;54486;51.442;6.778;2023-03-14T08:32:14;6.25;;;1.88;;
67696;SDS011;54486;51.442;6.778;2023-03-14T08:34:44;5.75;;;1.63;;
67696;SDS011;54486;51.442;6.778;2023-03-14T08:37:12;5.47;;;1.40;;
67696;SDS011;54486;51.442;6.778;2023-03-14T08:39:52;5.78;;;1.92;;
67696;SDS011;54486;51.442;6.778;2023-03-14T08:42:19;6.07;;;1.80;;
67696;SDS011;54486;51.442;6.778;2023-03-14T08:44:47;6.18;;;1.73;;
67696;SDS011;54486;51.442;6.778;2023-03-14T08:47:14;7.82;;;2.08;;
67696;SDS011;54486;51.442;6.778;2023-03-14T08:49:41;7.10;;;2.20;;
67696;SDS011;54486;51.442;6.778;2023-03-14T08:52:08;6.63;;;2.17;;
67696;SDS011;54486;51.442;6.778;2023-03-14T08:54:36;7.05;;;2.33;;
67696;SDS011;54486;51.442;6.778;2023-03-14T08:57:03;9.88;;;3.05;;
67696;SDS011;54486;51.442;6.778;2023-03-14T08:59:31;14.93;;;5.28;;
67696;SDS011;54486;51.442;6.778;2023-03-14T09:01:58;11.73;;;4.70;;
67696;SDS011;54486;51.442;6.778;2023-03-14T09:04:29;14.77;;;5.40;;
67696;SDS011;54486;51.442;6.778;2023-03-14T09:06:57;15.85;;;5.13;;
67696;SDS011;54486;51.442;6.778;2023-03-14T09:09:26;12.57;;;3.85;;
67696;SDS011;54486;51.442;6.778;2023-03-14T09:11:53;3.72;;;1.10;;
67696;SDS011;54486;51.442;6.778;2023-03-14T09:14:20;4.15;;;1.20;;
67696;SDS011;54486;51.442;6.778;2023-03-14T09:16:48;3.63;;;0.90;;
67696;SDS011;54486;51.442;6.778;2023-03-14T09:19:16;3.70;;;1.17;;
67696;SDS011;54486;51.442;6.778;2023-03-14T09:21:43;3.58;;;0.98;;
67696;SDS011;54486;51.442;6.778;2023-03-14T09:24:11;2.73;;;0.90;;
67696;SDS011;54486;51.442;6.778;2023-03-14T09:26:38;3.38;;;0.90;;
67696;SDS011;54486;51.442;6.778;2023-03-14T09:29:06;4.00;;;0.93;;
67696;SDS011;54486;51.442;6.778;2023-03-14T09:31:33;4.40;;;1.10;;
67696;SDS011;54486;51.442;6.778;2023-03-14T09:34:01;3.50;;;1.02;;
67696;SDS011;54486;51.442;6.778;2023-03-14T09:36:28;4.80;;;1.10;;
67696;SDS011;54486;51.442;6.778;2023-03-14T09:38:57;4.30;;;1.20;;
67696;SDS011;54486;51.442;6.778;2023-03-14T09:41:25;4.30;;;1.30;;
67696;SDS011;54486;51.442;6.778;2023-03-14T09:44:03;5.80;;;1.43;;
67696;SDS011;54486;51.442;6.778;2023-03-14T09:46:44;5.93;;;1.60;;
67696;SDS011;54486;51.442;6.778;2023-03-14T09:49:19;6.80;;;1.53;;
67696;SDS011;54486;51.442;6.778;2023-03-14T09:51:51;5.93;;;1.80;;
67696;SDS011;54486;51.442;6.778;2023-03-14T09:55:11;7.93;;;1.77;;
67696;SDS011;54486;51.442;6.778;2023-03-14T09:57:18;6.40;;;1.95;;
67696;SDS011;54486;51.442;6.778;2023-03-14T09:59:47;6.00;;;1.80;;
67696;SDS011;54486;51.442;6.778;2023-03-14T10:02:23;5.78;;;1.73;;
67696;SDS011;54486;51.442;6.778;2023-03-14T10:04:52;5.88;;;1.80;;
67696;SDS011;54486;51.442;6.778;2023-03-14T10:07:29;5.53;;;1.80;;
67696;SDS011;54486;51.442;6.778;2023-03-14T10:09:58;5.80;;;1.75;;
67696;SDS011;54486;51.442;6.778;2023-03-14T10:12:32;5.35;;;1.60;;
67696;SDS011;54486;51.442;6.778;2023-03-14T10:15:05;5.80;;;1.75;;
67696;SDS011;54486;51.442;6.778;2023-03-14T10:17:38;6.28;;;1.58;;
67696;SDS011;54486;51.442;6.778;2023-03-14T10:20:25;5.32;;;1.70;;
67696;SDS011;54486;51.442;6.778;2023-03-14T10:23:23;7.10;;;2.17;;
67696;SDS011;54486;51.442;6.778;2023-03-14T10:28:28;5.53;;;1.70;;
67696;SDS011;54486;51.442;6.778;2023-03-14T10:30:57;9.82;;;2.80;;
67696;SDS011;54486;51.442;6.778;2023-03-14T10:33:26;7.47;;;2.10;;
67696;SDS011;54486;51.442;6.778;2023-03-14T10:38:43;6.88;;;1.92;;
67696;SDS011;54486;51.442;6.778;2023-03-14T10:41:19;7.60;;;2.25;;
67696;SDS011;54486;51.442;6.778;2023-03-14T10:43:53;6.03;;;1.70;;
67696;SDS011;54486;51.442;6.778;2023-03-14T10:46:24;5.20;;;1.55;;
67696;SDS011;54486;51.442;6.778;2023-03-14T10:48:56;6.50;;;2.00;;
67696;SDS011;54486;51.442;6.778;2023-03-14T10:51:29;6.95;;;2.03;;
67696;SDS011;54486;51.442;6.778;2023-03-14T10:54:00;7.90;;;2.20;;
67696;SDS011;54486;51.442;6.778;2023-03-14T10:56:34;9.27;;;2.77;;
67696;SDS011;54486;51.442;6.778;2023-03-14T10:59:03;8.35;;;2.70;;
67696;SDS011;54486;51.442;6.778;2023-03-14T11:01:53;8.98;;;2.83;;
67696;SDS011;54486;51.442;6.778;2023-03-14T11:07:41;7.27;;;2.00;;
67696;SDS011;54486;51.442;6.778;2023-03-14T11:10:26;6.05;;;1.95;;
67696;SDS011;54486;51.442;6.778;2023-03-14T11:13:16;6.43;;;2.00;;
67696;SDS011;54486;51.442;6.778;2023-03-14T11:21:37;9.93;;;3.00;;
67696;SDS011;54486;51.442;6.778;2023-03-14T11:30:13;8.73;;;2.55;;
67696;SDS011;54486;51.442;6.778;2023-03-14T11:32:45;7.32;;;2.13;;
67696;SDS011;54486;51.442;6.778;2023-03-14T11:38:00;8.10;;;2.20;;
67696;SDS011;54486;51.442;6.778;2023-03-14T11:40:37;7.05;;;1.83;;
67696;SDS011;54486;51.442;6.778;2023-03-14T11:43:09;7.68;;;1.70;;
67696;SDS011;54486;51.442;6.778;2023-03-14T11:45:44;6.07;;;1.30;;
67696;SDS011;54486;51.442;6.778;2023-03-14T11:51:04;7.22;;;1.67;;
67696;SDS011;54486;51.442;6.778;2023-03-14T11:56:19;7.82;;;2.42;;
67696;SDS011;54486;51.442;6.778;2023-03-14T11:58:57;8.70;;;1.90;;
67696;SDS011;54486;51.442;6.778;2023-03-14T12:01:34;7.90;;;2.03;;
67696;SDS011;54486;51.442;6.778;2023-03-14T12:04:31;7.25;;;2.20;;
67696;SDS011;54486;51.442;6.778;2023-03-14T12:07:06;7.57;;;2.10;;
67696;SDS011;54486;51.442;6.778;2023-03-14T12:10:01;7.40;;;2.20;;
67696;SDS011;54486;51.442;6.778;2023-03-14T12:12:29;9.27;;;2.17;;
67696;SDS011;54486;51.442;6.778;2023-03-14T12:14:59;9.40;;;1.98;;
67696;SDS011;54486;51.442;6.778;2023-03-14T12:17:35;9.23;;;2.38;;
67696;SDS011;54486;51.442;6.778;2023-03-14T12:20:17;9.10;;;2.53;;
67696;SDS011;54486;51.442;6.778;2023-03-14T12:22:46;9.95;;;3.05;;
67696;SDS011;54486;51.442;6.778;2023-03-14T12:33:11;10.03;;;2.10;;
67696;SDS011;54486;51.442;6.778;2023-03-14T12:35:40;8.10;;;1.97;;
67696;SDS011;54486;51.442;6.778;2023-03-14T12:38:10;9.00;;;2.00;;
67696;SDS011;54486;51.442;6.778;2023-03-14T12:40:47;9.55;;;2.20;;
67696;SDS011;54486;51.442;6.778;2023-03-14T12:43:38;10.77;;;2.33;;
67696;SDS011;54486;51.442;6.778;2023-03-14T12:48:55;11.98;;;2.72;;
67696;SDS011;54486;51.442;6.778;2023-03-14T12:51:35;8.75;;;2.15;;
67696;SDS011;54486;51.442;6.778;2023-03-14T12:57:10;10.85;;;2.45;;
67696;SDS011;54486;51.442;6.778;2023-03-14T12:59:55;11.48;;;2.38;;
67696;SDS011;54486;51.442;6.778;2023-03-14T13:02:24;11.73;;;2.35;;
67696;SDS011;54486;51.442;6.778;2023-03-14T13:07:34;11.50;;;2.22;;
67696;SDS011;54486;51.442;6.778;2023-03-14T13:13:16;12.02;;;3.17;;
67696;SDS011;54486;51.442;6.778;2023-03-14T13:15:48;11.53;;;2.30;;
67696;SDS011;54486;51.442;6.778;2023-03-14T13:18:28;11.27;;;2.50;;
67696;SDS011;54486;51.442;6.778;2023-03-14T13:21:09;10.68;;;2.42;;
67696;SDS011;54486;51.442;6.778;2023-03-14T13:23:41;10.35;;;2.55;;
67696;SDS011;54486;51.442;6.778;2023-03-14T13:26:21;12.05;;;2.60;;
67696;SDS011;54486;51.442;6.778;2023-03-14T13:28:50;13.23;;;2.80;;
67696;SDS011;54486;51.442;6.778;2023-03-14T13:31:24;13.05;;;2.60;;
67696;SDS011;54486;51.442;6.778;2023-03-14T13:33:56;11.48;;;2.40;;
67696;SDS011;54486;51.442;6.778;2023-03-14T13:36:27;11.98;;;2.40;;
67696;SDS011;54486;51.442;6.778;2023-03-14T13:38:55;13.45;;;3.00;;
67696;SDS011;54486;51.442;6.778;2023-03-14T13:41:26;14.03;;;2.70;;
67696;SDS011;54486;51.442;6.778;2023-03-14T13:43:58;13.90;;;3.58;;
67696;SDS011;54486;51.442;6.778;2023-03-14T13:46:30;13.85;;;2.72;;
67696;SDS011;54486;51.442;6.778;2023-03-14T13:49:02;12.52;;;2.60;;
67696;SDS011;54486;51.442;6.778;2023-03-14T13:51:31;14.60;;;2.20;;
67696;SDS011;54486;51.442;6.778;2023-03-14T13:54:00;11.48;;;2.58;;
67696;SDS011;54486;51.442;6.778;2023-03-14T13:56:30;14.05;;;2.58;;
67696;SDS011;54486;51.442;6.778;2023-03-14T13:58:59;14.45;;;2.35;;
67696;SDS011;54486;51.442;6.778;2023-03-14T14:04:18;12.52;;;2.58;;
67696;SDS011;54486;51.442;6.778;2023-03-14T14:07:10;11.88;;;2.35;;
67696;SDS011;54486;51.442;6.778;2023-03-14T14:09:48;12.43;;;2.10;;
67696;SDS011;54486;51.442;6.778;2023-03-14T14:12:17;9.07;;;1.90;;
67696;SDS011;54486;51.442;6.778;2023-03-14T14:15:11;10.45;;;2.08;;
67696;SDS011;54486;51.442;6.778;2023-03-14T14:17:48;9.25;;;1.90;;
67696;SDS011;54486;51.442;6.778;2023-03-14T14:23:03;9.23;;;1.93;;
67696;SDS011;54486;51.442;6.778;2023-03-14T14:25:33;10.15;;;2.10;;
67696;SDS011;54486;51.442;6.778;2023-03-14T14:30:44;11.30;;;2.40;;
67696;SDS011;54486;51.442;6.778;2023-03-14T14:33:19;9.65;;;2.10;;
67696;SDS011;54486;51.442;6.778;2023-03-14T14:38:26;9.13;;;1.70;;
67696;SDS011;54486;51.442;6.778;2023-03-14T14:40:59;8.45;;;1.52;;
67696;SDS011;54486;51.442;6.778;2023-03-14T14:43:29;8.98;;;1.88;;
67696;SDS011;54486;51.442;6.778;2023-03-14T14:46:00;8.80;;;1.65;;
67696;SDS011;54486;51.442;6.778;2023-03-14T14:48:30;8.07;;;1.67;;
67696;SDS011;54486;51.442;6.778;2023-03-14T14:51:05;8.17;;;1.60;;
67696;SDS011;54486;51.442;6.778;2023-03-14T14:53:36;8.43;;;1.70;;
67696;SDS011;54486;51.442;6.778;2023-03-14T14:56:17;9.00;;;2.10;;
67696;SDS011;54486;51.442;6.778;2023-03-14T14:58:49;9.33;;;1.80;;
67696;SDS011;54486;51.442;6.778;2023-03-14T15:01:17;6.35;;;1.60;;
67696;SDS011;54486;51.442;6.778;2023-03-14T15:03:48;9.33;;;1.70;;
67696;SDS011;54486;51.442;6.778;2023-03-14T15:06:18;9.88;;;2.20;;
67696;SDS011;54486;51.442;6.778;2023-03-14T15:08:46;8.65;;;2.28;;
67696;SDS011;54486;51.442;6.778;2023-03-14T15:11:21;7.82;;;1.60;;
67696;SDS011;54486;51.442;6.778;2023-03-14T15:13:51;7.50;;;1.60;;
67696;SDS011;54486;51.442;6.778;2023-03-14T15:16:20;10.48;;;1.88;;
67696;SDS011;54486;51.442;6.778;2023-03-14T15:18:52;8.50;;;1.40;;
67696;SDS011;54486;51.442;6.778;2023-03-14T15:21:26;10.18;;;1.98;;
67696;SDS011;54486;51.442;6.778;2023-03-14T15:23:55;11.35;;;3.13;;
67696;SDS011;54486;51.442;6.778;2023-03-14T15:26:26;11.85;;;2.53;;
67696;SDS011;54486;51.442;6.778;2023-03-14T15:28:54;10.55;;;2.10;;
67696;SDS011;54486;51.442;6.778;2023-03-14T15:31:21;10.27;;;2.60;;
67696;SDS011;54486;51.442;6.778;2023-03-14T15:33:49;8.17;;;1.73;;
67696;SDS011;54486;51.442;6.778;2023-03-14T15:36:24;8.05;;;1.50;;
67696;SDS011;54486;51.442;6.778;2023-03-14T15:38:54;7.97;;;1.67;;
67696;SDS011;54486;51.442;6.778;2023-03-14T15:41:22;8.30;;;1.67;;
67696;SDS011;54486;51.442;6.778;2023-03-14T15:43:49;8.20;;;2.17;;
67696;SDS011;54486;51.442;6.778;2023-03-14T15:46:17;8.70;;;2.00;;
67696;SDS011;54486;51.442;6.778;2023-03-14T15:48:48;7.93;;;1.63;;
67696;SDS011;54486;51.442;6.778;2023-03-14T15:51:16;8.02;;;1.67;;
67696;SDS011;54486;51.442;6.778;2023-03-14T15:53:46;10.48;;;1.85;;
67696;SDS011;54486;51.442;6.778;2023-03-14T15:56:15;9.98;;;2.05;;
67696;SDS011;54486;51.442;6.778;2023-03-14T15:58:44;9.68;;;2.05;;
67696;SDS011;54486;51.442;6.778;2023-03-14T16:01:15;9.20;;;1.77;;
67696;SDS011;54486;51.442;6.778;2023-03-14T16:03:46;6.57;;;1.53;;
67696;SDS011;54486;51.442;6.778;2023-03-14T16:06:15;8.32;;;1.63;;
67696;SDS011;54486;51.442;6.778;2023-03-14T16:08:42;10.52;;;2.00;;
67696;SDS011;54486;51.442;6.778;2023-03-14T16:11:09;8.13;;;2.00;;
67696;SDS011;54486;51.442;6.778;2023-03-14T16:13:38;9.50;;;2.05;;